Time;durP1;ratioP1;P1;durP2;ratioP2;P2;SDS_P1;SDS_P2;PMS_P1;PMS_P2;Temp;Humidity;BMP_temperature;BMP_pressure;BME280_temperature;BME280_humidity;BME280_pressure;Samples;Min_cycle;Max_cycle;Signal;HPM_P1;HPM_P2
2021/12/15 00:01:05;;;;;;;77.00;38.05;;;;;;;8.28;100.00;102861.34;5032599;28;20025;-68
2021/12/15 00:03:30;;;;;;;80.63;40.03;;;;;;;8.26;100.00;102862.53;5033539;28;20046;-67
2021/12/15 00:05:56;;;;;;;75.32;38.38;;;;;;;8.26;100.00;102857.06;5026616;28;20030;-67
2021/12/15 00:08:23;;;;;;;75.35;37.90;;;;;;;8.25;100.00;102863.56;5038903;28;20455;-67
2021/12/15 00:10:49;;;;;;;75.70;37.58;;;;;;;8.25;100.00;102861.69;5045043;28;20029;-67
2021/12/15 00:13:17;;;;;;;80.10;38.08;;;;;;;8.23;100.00;102863.75;5026201;28;20483;-67
2021/12/15 00:15:43;;;;;;;;;;;;;;;8.44;100.00;102857.00;5039378;28;20117;-68
2021/12/15 00:18:09;;;;;;;74.55;35.80;;;;;;;8.26;100.00;102859.78;5031308;28;19916;-67
2021/12/15 00:20:35;;;;;;;71.93;37.47;;;;;;;8.26;100.00;102866.16;5045834;28;20009;-68
2021/12/15 00:23:01;;;;;;;75.68;35.50;;;;;;;8.27;100.00;102845.97;5037449;28;20029;-67
2021/12/15 00:25:31;;;;;;;75.85;35.58;;;;;;;8.24;100.00;102851.75;5035927;28;20032;-67
2021/12/15 00:27:57;;;;;;;72.95;38.33;;;;;;;8.23;100.00;102849.19;5045171;28;20036;-67
2021/12/15 00:30:23;;;;;;;74.70;36.55;;;;;;;8.23;100.00;102843.72;5031337;28;20029;-67
2021/12/15 00:32:49;;;;;;;77.55;37.63;;;;;;;8.24;100.00;102856.38;5039755;28;20025;-68
2021/12/15 00:35:16;;;;;;;71.97;35.55;;;;;;;8.26;100.00;102848.84;5034210;28;20037;-67
2021/12/15 00:37:41;;;;;;;81.57;38.42;;;;;;;8.26;100.00;102849.72;5030104;28;20547;-68
2021/12/15 00:40:10;;;;;;;77.22;37.85;;;;;;;8.25;100.00;102853.47;5037023;28;20063;-68
2021/12/15 00:42:35;;;;;;;74.28;37.20;;;;;;;8.26;100.00;102848.84;5044674;28;20048;-68
2021/12/15 00:45:02;;;;;;;73.55;36.15;;;;;;;8.27;100.00;102850.59;5034136;28;20524;-67
2021/12/15 00:47:27;;;;;;;80.55;37.55;;;;;;;8.25;100.00;102848.00;5038623;28;20033;-67
2021/12/15 00:49:52;;;;;;;77.88;39.20;;;;;;;8.26;100.00;102848.84;5039145;28;20033;-67
2021/12/15 00:52:18;;;;;;;78.30;37.95;;;;;;;8.24;100.00;102846.28;5027199;28;20032;-67
2021/12/15 00:54:44;;;;;;;78.03;36.95;;;;;;;8.29;100.00;102843.91;5034151;28;20025;-67
2021/12/15 00:57:09;;;;;;;72.53;36.45;;;;;;;8.23;100.00;102844.56;5036020;28;20026;-67
2021/12/15 00:59:35;;;;;;;76.97;36.22;;;;;;;8.24;100.00;102840.81;5031024;28;20037;-67
2021/12/15 01:02:01;;;;;;;81.50;38.65;;;;;;;8.23;100.00;102850.06;5030591;28;20447;-67
2021/12/15 01:04:29;;;;;;;74.68;36.63;;;;;;;8.22;100.00;102842.88;5034338;28;20025;-67
2021/12/15 01:06:58;;;;;;;83.35;37.67;;;;;;;8.21;100.00;102849.38;5036933;28;20040;-67
2021/12/15 01:09:32;;;;;;;80.13;37.65;;;;;;;8.23;100.00;102844.56;5043906;28;20028;-67
2021/12/15 01:19:58;;;;;;;76.57;36.70;;;;;;;8.23;100.00;102851.94;5025779;28;20048;-67
2021/12/15 01:22:35;;;;;;;76.97;36.78;;;;;;;8.26;100.00;102844.25;5042801;28;20104;-67
2021/12/15 01:25:13;;;;;;;74.68;36.42;;;;;;;8.25;100.00;102852.63;5031857;28;20033;-67
2021/12/15 01:27:39;;;;;;;73.35;35.63;;;;;;;8.22;100.00;102845.59;5028672;28;20509;-67
2021/12/15 01:30:07;;;;;;;74.10;35.88;;;;;;;8.20;100.00;102844.91;5036293;28;20032;-68
2021/12/15 01:32:33;;;;;;;72.72;35.60;;;;;;;8.22;100.00;102847.50;5038360;28;20035;-68
2021/12/15 01:34:59;;;;;;;72.57;34.40;;;;;;;8.19;100.00;102839.59;5029896;28;20041;-67
2021/12/15 01:37:24;;;;;;;75.57;35.90;;;;;;;8.23;100.00;102854.66;5040520;28;20021;-67
2021/12/15 01:39:54;;;;;;;75.18;35.05;;;;;;;8.21;100.00;102857.59;5044493;28;20061;-67
2021/12/15 01:42:20;;;;;;;75.05;36.03;;;;;;;8.22;100.00;102856.56;5038016;28;20023;-67
2021/12/15 01:47:28;;;;;;;69.70;35.50;;;;;;;8.22;100.00;102853.81;5035417;28;20072;-67
2021/12/15 01:49:54;;;;;;;68.70;31.73;;;;;;;8.21;100.00;102854.84;5033006;28;20061;-67
2021/12/15 01:52:32;;;;;;;71.03;34.40;;;;;;;8.21;100.00;102857.59;5043583;28;20345;-67
2021/12/15 01:55:04;;;;;;;72.13;34.58;;;;;;;8.19;100.00;102854.13;5039238;28;20082;-67
2021/12/15 01:57:31;;;;;;;71.38;33.60;;;;;;;8.22;100.00;102859.28;5028482;28;20024;-67
2021/12/15 01:59:58;;;;;;;78.22;36.85;;;;;;;8.20;100.00;102860.47;5043290;28;20021;-67
2021/12/15 02:02:25;;;;;;;72.22;35.22;;;;;;;8.21;100.00;102859.44;5043194;28;20091;-67
2021/12/15 02:04:52;;;;;;;74.90;35.20;;;;;;;8.20;100.00;102868.69;5039446;28;20021;-67
2021/12/15 02:07:19;;;;;;;68.50;32.37;;;;;;;8.21;100.00;102875.84;5044116;28;20029;-67
2021/12/15 02:12:23;;;;;;;72.35;33.50;;;;;;;8.21;100.00;102874.00;5025259;28;20041;-67
2021/12/15 02:14:49;;;;;;;74.97;34.25;;;;;;;8.22;100.00;102875.72;5030267;28;20055;-67
2021/12/15 02:17:15;;;;;;;70.80;34.50;;;;;;;8.21;100.00;102875.84;5027508;28;20033;-67
2021/12/15 02:19:41;;;;;;;75.78;34.60;;;;;;;8.23;100.00;102880.16;5024176;28;20033;-68
2021/12/15 02:22:06;;;;;;;71.93;34.65;;;;;;;8.21;100.00;102876.75;5034751;28;20087;-68
2021/12/15 02:24:34;;;;;;;71.43;34.55;;;;;;;8.23;100.00;102882.91;5036863;28;20472;-68
2021/12/15 02:27:01;;;;;;;76.30;33.88;;;;;;;8.21;100.00;102876.75;5043787;28;20436;-67
2021/12/15 02:29:33;;;;;;;68.53;32.70;;;;;;;8.22;100.00;102880.34;5035000;28;20147;-67
2021/12/15 02:32:12;;;;;;;75.60;34.00;;;;;;;8.22;100.00;102880.34;5024264;28;20112;-67
2021/12/15 02:37:15;;;;;;;68.55;32.45;;;;;;;8.25;100.00;102886.31;5035992;28;20029;-67
2021/12/15 02:37:32;;;;;;;71.85;32.60;;;;;;;8.23;100.00;102880.16;5021214;28;20052;-68
2021/12/15 02:40:05;;;;;;;75.25;32.10;;;;;;;8.26;100.00;102882.59;5043770;28;20029;-67
2021/12/15 02:42:37;;;;;;;78.10;33.83;;;;;;;8.25;100.00;102880.00;5039034;28;20025;-67
2021/12/15 02:45:08;;;;;;;76.57;34.63;;;;;;;8.24;100.00;102875.53;5031399;28;20112;-68
2021/12/15 02:47:34;;;;;;;82.43;35.85;;;;;;;8.27;100.00;102877.97;5034844;28;20040;-67
2021/12/15 02:50:01;;;;;;;70.40;32.95;;;;;;;8.24;100.00;102875.53;5044048;28;20025;-67
2021/12/15 02:52:27;;;;;;;73.35;34.58;;;;;;;8.24;100.00;102883.75;5043136;28;20389;-67
2021/12/15 02:54:52;;;;;;;72.65;33.67;;;;;;;8.24;100.00;102878.28;5043215;28;20507;-67
2021/12/15 02:57:18;;;;;;;80.22;35.55;;;;;;;8.25;100.00;102875.38;5036195;28;20060;-67
2021/12/15 03:00:00;;;;;;;75.53;33.38;;;;;;;8.24;100.00;102875.53;5024006;28;20028;-68
2021/12/15 03:05:21;;;;;;;72.80;34.20;;;;;;;8.23;100.00;102871.94;5025290;28;20076;-67
2021/12/15 03:08:47;;;;;;;77.93;34.60;;;;;;;8.22;100.00;102870.25;5029914;28;20032;-67
2021/12/15 03:16:12;;;;;;;68.00;31.95;;;;;;;8.28;100.00;102861.34;5031055;28;20059;-67
2021/12/15 03:18:38;;;;;;;71.90;36.00;;;;;;;8.23;100.00;102869.22;5046288;28;20028;-68
2021/12/15 03:21:14;;;;;;;78.97;34.20;;;;;;;8.22;100.00;102861.19;5041929;28;20041;-68
2021/12/15 03:23:52;;;;;;;77.05;33.72;;;;;;;8.22;100.00;102864.78;5027727;28;20037;-67
2021/12/15 03:26:45;;;;;;;77.57;35.92;;;;;;;8.24;100.00;102859.13;5038994;28;20033;-67
2021/12/15 03:37:26;;;;;;;76.30;32.78;;;;;;;8.23;100.00;102866.47;5038332;28;20037;-67
2021/12/15 03:39:57;;;;;;;74.43;33.20;;;;;;;8.23;100.00;102869.22;5046873;28;20059;-67
2021/12/15 03:42:29;;;;;;;75.20;32.63;;;;;;;8.24;100.00;102864.59;5044647;28;20428;-67
2021/12/15 03:44:56;;;;;;;77.32;33.97;;;;;;;8.24;100.00;102868.19;5046588;28;20061;-67
2021/12/15 03:47:29;;;;;;;84.25;34.70;;;;;;;8.23;100.00;102871.94;5028075;28;20522;-67
2021/12/15 03:49:57;;;;;;;73.75;34.58;;;;;;;8.25;100.00;102885.47;5027049;28;20030;-67
2021/12/15 03:52:23;;;;;;;76.25;35.08;;;;;;;8.25;100.00;102880.84;5042381;28;20057;-67
2021/12/15 03:54:49;;;;;;;77.25;32.50;;;;;;;8.25;100.00;102889.06;5046477;28;20044;-67
2021/12/15 03:57:15;;;;;;;80.85;34.63;;;;;;;8.26;100.00;102881.69;5031156;28;20026;-67
2021/12/15 03:59:43;;;;;;;74.13;32.78;;;;;;;8.27;100.00;102883.44;5026674;28;20435;-68
2021/12/15 04:02:11;;;;;;;71.15;31.45;;;;;;;8.26;100.00;102878.97;5032153;28;20095;-67
2021/12/15 04:04:37;;;;;;;75.85;33.53;;;;;;;8.26;100.00;102888.06;5043409;28;20485;-68
2021/12/15 04:07:03;;;;;;;72.53;33.38;;;;;;;8.28;100.00;102891.47;5033772;28;20037;-68
2021/12/15 04:09:28;;;;;;;73.70;33.30;;;;;;;8.27;100.00;102887.03;5035781;28;20116;-67
2021/12/15 04:11:54;;;;;;;71.00;32.50;;;;;;;8.29;100.00;102893.19;5043732;28;20033;-67
2021/12/15 04:14:23;;;;;;;74.20;33.97;;;;;;;8.28;100.00;102885.16;5046255;28;20100;-68
2021/12/15 04:19:45;;;;;;;77.88;34.25;;;;;;;8.29;100.00;102893.19;5022810;28;20033;-67
2021/12/15 04:22:10;;;;;;;69.70;33.35;;;;;;;8.32;100.00;102894.75;5027663;28;20034;-67
2021/12/15 04:24:35;;;;;;;72.43;31.90;;;;;;;8.29;100.00;102893.19;5045786;28;20093;-67
2021/12/15 04:27:03;;;;;;;70.25;31.98;;;;;;;8.29;100.00;102887.72;5039570;28;20051;-67
2021/12/15 04:29:29;;;;;;;74.72;33.58;;;;;;;8.29;100.00;102900.53;5031235;28;20488;-67
2021/12/15 04:32:00;;;;;;;70.07;31.13;;;;;;;8.29;100.00;102895.06;5034031;28;20567;-67
2021/12/15 04:34:26;;;;;;;69.47;31.65;;;;;;;8.30;100.00;102897.63;5025642;28;20101;-67
2021/12/15 04:36:52;;;;;;;71.07;31.70;;;;;;;8.28;100.00;102888.72;5031198;28;20126;-68
2021/12/15 04:39:22;;;;;;;70.68;31.42;;;;;;;8.28;100.00;102896.94;5025787;28;20057;-68
2021/12/15 04:41:50;;;;;;;76.40;32.45;;;;;;;8.28;100.00;102902.41;5026412;28;20029;-67
2021/12/15 04:44:17;;;;;;;;;;;;;;;8.36;100.00;102900.72;5026093;28;20021;-68
2021/12/15 04:46:57;;;;;;;64.18;29.13;;;;;;;8.35;100.00;102901.75;5026303;28;19924;-67
2021/12/15 04:49:22;;;;;;;62.75;29.52;;;;;;;8.35;100.00;102901.75;5025381;28;20042;-67
2021/12/15 04:51:47;;;;;;;67.15;29.83;;;;;;;8.31;100.00;102893.88;5033656;28;20040;-67
2021/12/15 04:54:14;;;;;;;70.88;32.88;;;;;;;8.31;100.00;102899.38;5045435;28;20053;-67
2021/12/15 04:56:39;;;;;;;67.72;31.65;;;;;;;8.31;100.00;102906.69;5040062;28;20436;-67
2021/12/15 04:59:04;;;;;;;62.60;30.27;;;;;;;8.32;100.00;102909.28;5041258;28;20075;-68
2021/12/15 05:01:30;;;;;;;66.57;30.73;;;;;;;8.32;100.00;102913.91;5024875;28;20025;-67
2021/12/15 05:03:55;;;;;;;72.88;31.92;;;;;;;8.31;100.00;102910.31;5026857;28;20056;-67
2021/12/15 05:06:22;;;;;;;64.20;30.17;;;;;;;8.31;100.00;102909.44;5037558;28;20032;-67
2021/12/15 05:08:47;;;;;;;68.28;30.35;;;;;;;8.30;100.00;102908.56;5042049;28;20047;-67
2021/12/15 05:11:12;;;;;;;66.57;30.90;;;;;;;8.31;100.00;102910.31;5042682;28;20021;-68
2021/12/15 05:13:38;;;;;;;67.45;30.52;;;;;;;8.35;100.00;102909.97;5035614;28;20076;-67
2021/12/15 05:16:05;;;;;;;65.32;30.65;;;;;;;8.32;100.00;102909.28;5025148;28;20033;-69
2021/12/15 05:18:31;;;;;;;65.75;30.27;;;;;;;8.33;100.00;102911.00;5033009;28;20021;-67
2021/12/15 05:20:58;;;;;;;69.95;31.08;;;;;;;8.32;100.00;102911.19;5043809;28;20465;-67
2021/12/15 05:23:29;;;;;;;62.97;29.23;;;;;;;8.35;100.00;102919.03;5040088;28;20025;-67
2021/12/15 05:25:54;;;;;;;66.72;30.20;;;;;;;8.33;100.00;102924.69;5042029;28;20443;-67
2021/12/15 05:28:20;;;;;;;67.55;29.88;;;;;;;8.32;100.00;102925.72;5041501;28;20096;-67
2021/12/15 05:30:46;;;;;;;64.82;29.63;;;;;;;8.33;100.00;102911.00;5032488;28;20464;-67
2021/12/15 05:33:11;;;;;;;63.80;29.63;;;;;;;8.36;100.00;102920.78;5027749;28;20037;-66
2021/12/15 05:35:37;;;;;;;63.83;30.10;;;;;;;8.38;100.00;102924.22;5025713;28;20037;-67
2021/12/15 05:38:04;;;;;;;66.60;30.70;;;;;;;8.35;100.00;102923.66;5025076;28;20030;-68
2021/12/15 05:40:30;;;;;;;63.83;30.50;;;;;;;8.36;100.00;102922.63;5042626;28;20470;-67
2021/12/15 05:42:56;;;;;;;66.97;29.20;;;;;;;8.37;100.00;102924.41;5037917;28;20104;-67
2021/12/15 05:45:26;;;;;;;67.88;31.50;;;;;;;8.39;100.00;102920.47;5030772;28;20047;-67
2021/12/15 05:47:52;;;;;;;64.93;30.48;;;;;;;8.36;100.00;102920.78;5022841;28;20108;-67
2021/12/15 05:50:18;;;;;;;74.03;32.05;;;;;;;8.35;100.00;102923.66;5023786;28;20388;-67
2021/12/15 05:52:43;;;;;;;66.20;30.85;;;;;;;8.35;100.00;102921.78;5024285;28;20025;-67
2021/12/15 05:55:12;;;;;;;64.60;28.48;;;;;;;8.36;100.00;102925.38;5023281;28;20029;-67
2021/12/15 05:57:37;;;;;;;;;;;;;;;8.40;100.00;102924.06;5024852;28;20466;-67
2021/12/15 06:00:08;;;;;;;67.88;29.38;;;;;;;8.37;100.00;102922.53;5023941;28;20003;-68
2021/12/15 06:02:33;;;;;;;69.65;31.02;;;;;;;8.37;100.00;102928.00;5023587;28;20377;-67
2021/12/15 06:04:58;;;;;;;70.85;30.60;;;;;;;8.37;100.00;102922.53;5025150;28;20033;-66
2021/12/15 06:07:24;;;;;;;61.83;30.02;;;;;;;8.36;100.00;102925.38;5026980;28;20088;-67
2021/12/15 06:09:49;;;;;;;70.93;29.92;;;;;;;8.40;100.00;102933.13;5043688;28;20040;-67
2021/12/15 06:12:14;;;;;;;73.65;32.60;;;;;;;8.37;100.00;102933.47;5042128;28;20490;-67
2021/12/15 06:14:42;;;;;;;70.80;31.42;;;;;;;8.38;100.00;102926.09;5044158;28;20028;-67
2021/12/15 06:17:10;;;;;;;74.90;31.33;;;;;;;8.38;100.00;102934.31;5042340;28;20468;-67
2021/12/15 06:19:35;;;;;;;69.57;32.47;;;;;;;8.42;100.00;102938.47;5044029;28;20364;-67
2021/12/15 06:22:01;;;;;;;69.97;30.45;;;;;;;8.38;100.00;102950.75;5044204;28;20021;-67
2021/12/15 06:24:26;;;;;;;66.10;28.92;;;;;;;8.39;100.00;102945.09;5043768;28;20476;-67
2021/12/15 06:26:52;;;;;;;77.57;31.67;;;;;;;8.39;100.00;102946.97;5043143;28;20029;-67
2021/12/15 06:29:17;;;;;;;81.95;32.80;;;;;;;8.42;100.00;102952.16;5043331;28;20076;-67
2021/12/15 06:31:43;;;;;;;75.68;30.92;;;;;;;8.44;100.00;102952.81;5042304;28;20021;-67
2021/12/15 06:34:08;;;;;;;71.60;30.92;;;;;;;8.42;100.00;102946.66;5043411;28;20025;-67
2021/12/15 06:36:34;;;;;;;77.35;31.77;;;;;;;8.42;100.00;102957.63;5043616;28;20044;-67
2021/12/15 06:39:03;;;;;;;75.97;30.95;;;;;;;8.41;100.00;102951.25;5043679;28;20479;-67
2021/12/15 06:41:29;;;;;;;78.13;32.17;;;;;;;8.41;100.00;102950.41;5043509;28;20040;-67
2021/12/15 06:43:57;;;;;;;76.60;32.97;;;;;;;8.44;100.00;102956.41;5043516;28;20029;-67
2021/12/15 06:58:10;;;;;;;77.90;32.15;;;;;;;8.43;100.00;102954.72;5046942;28;20503;-67
2021/12/15 07:00:17;;;;;;;82.70;32.75;;;;;;;8.43;100.00;102957.44;5046816;28;20033;-67
2021/12/15 07:02:42;;;;;;;81.53;34.25;;;;;;;8.45;100.00;102957.28;5046676;28;20097;-67
2021/12/15 07:05:09;;;;;;;82.00;33.45;;;;;;;8.46;100.00;102967.19;5046654;28;20639;-68
2021/12/15 07:07:36;;;;;;;84.97;33.45;;;;;;;8.44;100.00;102963.78;5047509;28;20151;-68
2021/12/15 07:10:04;;;;;;;77.68;32.70;;;;;;;8.46;100.00;102970.78;5044076;28;20025;-68
2021/12/15 07:12:29;;;;;;;83.93;35.00;;;;;;;8.45;100.00;102979.19;5046896;28;20464;-68
2021/12/15 07:14:55;;;;;;;83.20;34.60;;;;;;;8.45;100.00;102973.69;5047179;28;20024;-68
2021/12/15 07:17:23;;;;;;;84.53;34.10;;;;;;;8.45;100.00;102973.69;5045941;28;20021;-68
2021/12/15 07:20:28;;;;;;;80.68;34.97;;;;;;;8.45;100.00;102974.56;5047035;28;20036;-68
2021/12/15 07:22:43;;;;;;;76.43;32.90;;;;;;;8.47;100.00;102971.69;5046606;28;20029;-68
2021/12/15 07:25:12;;;;;;;76.90;31.92;;;;;;;8.47;100.00;102983.50;5046569;28;20043;-68
2021/12/15 07:27:40;;;;;;;80.57;34.28;;;;;;;8.47;100.00;102978.00;5046863;28;20052;-68
2021/12/15 07:30:06;;;;;;;84.57;33.83;;;;;;;8.47;100.00;102980.75;5046055;28;20017;-67
2021/12/15 07:32:32;;;;;;;87.47;35.80;;;;;;;8.50;100.00;102982.28;5045940;28;20571;-69
2021/12/15 07:34:57;;;;;;;82.10;33.70;;;;;;;8.49;100.00;102980.56;5046684;28;20025;-67
2021/12/15 07:37:22;;;;;;;89.05;35.47;;;;;;;8.47;100.00;102982.63;5046186;28;20033;-67
2021/12/15 07:39:57;;;;;;;79.22;34.20;;;;;;;8.48;100.00;102979.72;5046665;28;20538;-67
2021/12/15 07:42:32;;;;;;;90.97;34.42;;;;;;;8.48;100.00;102979.72;5045525;28;20040;-68
2021/12/15 07:44:57;;;;;;;82.05;32.85;;;;;;;8.48;100.00;102985.19;5047209;28;20032;-67
2021/12/15 07:47:22;;;;;;;84.22;35.40;;;;;;;8.48;100.00;102984.34;5031305;28;20395;-67
2021/12/15 07:49:47;;;;;;;83.07;32.78;;;;;;;8.51;100.00;102986.72;5026563;28;20038;-67
2021/12/15 07:52:13;;;;;;;80.22;33.13;;;;;;;8.49;100.00;102992.38;5026149;28;20040;-67
2021/12/15 07:54:38;;;;;;;84.05;34.05;;;;;;;8.50;100.00;102993.25;5026496;28;20434;-67
2021/12/15 07:57:09;;;;;;;83.05;34.78;;;;;;;8.49;100.00;102994.25;5024385;28;20034;-68
2021/12/15 07:59:35;;;;;;;84.32;33.92;;;;;;;8.51;100.00;102994.94;5026454;28;20068;-67
2021/12/15 08:02:01;;;;;;;85.78;34.35;;;;;;;8.51;100.00;102994.94;5025624;28;20046;-67
2021/12/15 08:04:26;;;;;;;89.22;36.35;;;;;;;8.50;100.00;102991.34;5026357;28;20028;-67
2021/12/15 08:06:51;;;;;;;85.80;35.83;;;;;;;8.53;100.00;102993.78;5026055;28;20038;-67
2021/12/15 08:09:17;;;;;;;87.40;35.28;;;;;;;8.51;100.00;102998.53;5025936;28;20027;-67
2021/12/15 08:11:43;;;;;;;79.28;31.73;;;;;;;8.62;100.00;102996.53;5025666;28;20025;-67
2021/12/15 08:14:08;;;;;;;91.65;35.58;;;;;;;8.53;100.00;103002.00;5025565;28;20097;-68
2021/12/15 08:16:34;;;;;;;78.70;33.15;;;;;;;8.56;100.00;103004.38;5024518;28;20029;-68
2021/12/15 08:19:00;;;;;;;89.78;34.95;;;;;;;8.56;100.00;103003.53;5025271;28;20455;-68
2021/12/15 08:21:25;;;;;;;83.80;33.50;;;;;;;8.62;100.00;103000.16;5024780;28;20033;-68
2021/12/15 08:23:51;;;;;;;82.45;33.92;;;;;;;8.60;100.00;103007.66;5025451;28;20396;-68
2021/12/15 08:26:17;;;;;;;88.38;35.15;;;;;;;8.58;100.00;103007.84;5024889;28;20357;-68
2021/12/15 08:28:42;;;;;;;87.07;34.20;;;;;;;8.62;100.00;103007.47;5025741;28;20033;-68
2021/12/15 08:31:08;;;;;;;85.78;35.25;;;;;;;8.66;100.00;103008.88;5024664;28;20940;-68
2021/12/15 08:33:34;;;;;;;87.43;33.53;;;;;;;8.64;100.00;103002.72;5026032;28;20025;-68
2021/12/15 08:36:06;;;;;;;87.32;35.75;;;;;;;8.64;100.00;103006.31;5025742;28;20516;-68
2021/12/15 08:38:35;;;;;;;86.35;35.15;;;;;;;8.66;100.00;103014.34;5025806;28;20083;-68
2021/12/15 08:41:04;;;;;;;89.90;36.22;;;;;;;8.66;100.00;103009.72;5025665;28;20033;-68
2021/12/15 08:43:30;;;;;;;86.50;35.50;;;;;;;8.70;100.00;103015.75;5024664;28;20103;-68
2021/12/15 08:46:09;;;;;;;88.95;35.70;;;;;;;8.69;100.00;103023.13;5024704;28;20067;-67
2021/12/15 08:48:35;;;;;;;88.40;36.22;;;;;;;8.71;100.00;103018.31;5025241;28;20121;-68
2021/12/15 08:51:06;;;;;;;88.68;36.08;;;;;;;8.72;100.00;103013.72;5024099;28;20018;-67
2021/12/15 08:53:32;;;;;;;92.75;36.80;;;;;;;8.73;100.00;103020.91;5025440;28;20030;-68
2021/12/15 08:55:58;;;;;;;89.18;36.40;;;;;;;8.74;100.00;103017.13;5024534;28;20025;-68
2021/12/15 08:58:24;;;;;;;85.80;36.53;;;;;;;8.77;100.00;103014.94;5024637;28;20032;-68
2021/12/15 09:00:51;;;;;;;84.63;35.80;;;;;;;8.76;100.00;103013.19;5023758;28;20029;-67
2021/12/15 09:03:18;;;;;;;85.85;35.47;;;;;;;8.76;100.00;103013.19;5024522;28;20046;-68
2021/12/15 09:05:44;;;;;;;92.97;39.00;;;;;;;8.77;100.00;103019.56;5024579;28;20028;-69
2021/12/15 09:08:11;;;;;;;90.88;37.58;;;;;;;8.76;100.00;103021.41;5024284;28;20028;-67
2021/12/15 09:10:40;;;;;;;85.77;36.60;;;;;;;8.83;100.00;103024.38;5029334;28;20463;-68
2021/12/15 09:13:08;;;;;;;83.55;36.33;;;;;;;8.84;100.00;103029.69;5044182;28;20057;-68
2021/12/15 09:15:34;;;;;;;93.03;39.25;;;;;;;8.83;100.00;103024.38;5043048;28;20507;-68
2021/12/15 09:17:59;;;;;;;85.15;37.17;;;;;;;8.85;100.00;103036.00;5044932;28;20056;-67
2021/12/15 09:20:28;;;;;;;87.03;37.13;;;;;;;8.87;100.00;103033.09;5042608;28;20043;-68
2021/12/15 09:22:54;;;;;;;88.63;36.92;;;;;;;8.88;100.00;103030.22;5043999;28;20025;-67
2021/12/15 09:25:20;;;;;;;87.68;37.75;;;;;;;8.91;100.00;103046.31;5043522;28;20013;-68
2021/12/15 09:27:47;;;;;;;87.57;36.83;;;;;;;8.93;100.00;103046.16;5044028;28;20028;-67
2021/12/15 09:30:19;;;;;;;80.10;36.55;;;;;;;8.93;100.00;103048.91;5041964;28;20033;-68
2021/12/15 09:32:45;;;;;;;84.47;36.40;;;;;;;8.93;100.00;103057.97;5028418;28;20477;-67
2021/12/15 09:35:13;;;;;;;85.15;35.58;;;;;;;8.96;100.00;103049.41;5024659;28;20103;-67
2021/12/15 09:37:38;;;;;;;85.95;35.47;;;;;;;8.98;100.00;103052.00;5024598;28;20021;-68
2021/12/15 09:40:07;;;;;;;86.10;36.88;;;;;;;8.98;100.00;103049.25;5024809;28;20115;-68
2021/12/15 09:42:36;;;;;;;;;;;;;;;9.15;100.00;103048.28;5037476;28;20454;-68
2021/12/15 09:45:20;;;;;;;82.75;37.25;;;;;;;9.06;100.00;103052.00;5042814;28;19931;-68
2021/12/15 09:48:07;;;;;;;84.35;37.08;;;;;;;9.07;100.00;103046.38;5045063;28;20059;-68
2021/12/15 10:07:18;;;;;;;79.85;37.95;;;;;;;9.35;100.00;103057.06;5038606;28;20116;-68
2021/12/15 10:17:32;;;;;;;80.10;37.80;;;;;;;9.53;99.21;103063.28;5033585;28;20424;-65
2021/12/15 10:20:00;;;;;;;;;;;;;;;9.63;99.58;103057.63;5036972;28;20069;-65
2021/12/15 10:22:34;;;;;;;75.60;35.65;;;;;;;9.61;98.66;103060.50;5031098;28;19917;-65
2021/12/15 10:25:17;;;;;;;77.90;37.70;;;;;;;9.68;99.02;103057.09;5032521;28;20033;-66
2021/12/15 10:27:53;;;;;;;78.63;34.95;;;;;;;9.77;98.71;103064.28;5039180;28;20021;-65
2021/12/15 10:30:30;;;;;;;79.07;37.78;;;;;;;9.76;98.40;103057.09;5033550;28;20892;-65
2021/12/15 10:33:04;;;;;;;73.95;36.33;;;;;;;9.75;98.16;103059.00;5033199;28;20060;-65
2021/12/15 10:35:44;;;;;;;74.50;38.47;;;;;;;9.82;97.73;103060.00;5040890;28;20052;-65
2021/12/15 10:38:19;;;;;;;75.57;37.25;;;;;;;9.85;97.26;103054.19;5043127;28;20040;-65
2021/12/15 10:40:53;;;;;;;78.53;39.65;;;;;;;9.91;97.73;103063.63;5039109;28;20065;-65
2021/12/15 10:43:21;;;;;;;78.53;39.10;;;;;;;9.94;97.04;103062.44;5032871;28;20029;-65
2021/12/15 10:45:52;;;;;;;77.38;37.95;;;;;;;9.95;97.13;103055.91;5042707;28;20418;-65
2021/12/15 10:48:35;;;;;;;73.00;36.90;;;;;;;9.97;97.34;103059.31;5042760;28;20116;-66
2021/12/15 10:51:18;;;;;;;70.97;37.10;;;;;;;9.96;96.68;103063.97;5037662;28;20030;-65
2021/12/15 10:53:43;;;;;;;75.75;38.85;;;;;;;9.94;96.83;103066.03;5030141;28;20033;-65
2021/12/15 10:56:11;;;;;;;72.88;36.15;;;;;;;9.98;96.16;103064.63;5043036;28;20044;-65
2021/12/15 10:58:43;;;;;;;76.95;37.83;;;;;;;9.95;96.47;103066.88;5041710;28;20353;-66
2021/12/15 11:01:39;;;;;;;73.35;38.15;;;;;;;9.98;97.14;103077.50;5041016;28;20094;-66
2021/12/15 11:04:27;;;;;;;71.22;38.83;;;;;;;9.97;96.82;103064.81;5041144;28;20037;-66
2021/12/15 11:07:10;;;;;;;74.00;37.20;;;;;;;9.95;97.08;103066.88;5041916;28;20479;-65
2021/12/15 11:09:40;;;;;;;76.75;40.00;;;;;;;9.95;96.42;103065.00;5036298;28;20071;-66
2021/12/15 11:12:19;;;;;;;78.80;39.20;;;;;;;9.94;96.92;103060.53;5036235;28;20611;-65
2021/12/15 11:14:48;;;;;;;75.47;39.63;;;;;;;9.96;96.86;103061.22;5038473;28;20021;-65
2021/12/15 11:17:18;;;;;;;76.65;39.83;;;;;;;9.98;96.53;103056.41;5030512;28;20614;-65
2021/12/15 11:19:46;;;;;;;77.97;39.75;;;;;;;10.01;96.77;103060.69;5041793;28;20456;-66
2021/12/15 11:22:39;;;;;;;73.70;39.55;;;;;;;10.09;96.72;103057.97;5029927;28;20037;-65
2021/12/15 11:25:19;;;;;;;76.32;40.83;;;;;;;10.07;96.59;103060.84;5038808;28;20090;-66
2021/12/15 11:27:48;;;;;;;76.05;39.65;;;;;;;10.07;96.22;103060.00;5043804;28;20048;-65
2021/12/15 11:30:19;;;;;;;80.25;40.00;;;;;;;10.10;95.73;103057.78;5039303;28;20101;-65
2021/12/15 11:32:48;;;;;;;78.25;41.30;;;;;;;10.09;96.07;103058.81;5042314;28;20086;-65
2021/12/15 11:35:21;;;;;;;74.90;40.42;;;;;;;10.15;95.60;103054.50;5041122;28;20033;-66
2021/12/15 11:37:53;;;;;;;79.70;40.55;;;;;;;10.16;96.07;103050.72;5045471;28;20028;-66
2021/12/15 11:40:28;;;;;;;74.18;40.80;;;;;;;10.21;95.52;103052.94;5027262;28;20057;-66
2021/12/15 11:42:53;;;;;;;83.05;41.47;;;;;;;10.21;95.74;103050.22;5042747;28;20040;-66
2021/12/15 11:45:19;;;;;;;78.57;41.42;;;;;;;10.23;95.51;103046.25;5045865;28;20041;-65
2021/12/15 11:47:44;;;;;;;73.07;40.55;;;;;;;10.21;95.55;103047.47;5045312;28;20033;-65
2021/12/15 11:50:17;;;;;;;73.10;40.50;;;;;;;10.19;95.36;103047.66;5046972;28;20029;-65
2021/12/15 11:52:45;;;;;;;70.05;38.15;;;;;;;10.20;94.98;103046.59;5034141;28;20030;-65
2021/12/15 11:55:30;;;;;;;70.05;39.63;;;;;;;10.20;95.70;103043.88;5026645;28;20130;-66
2021/12/15 11:57:57;;;;;;;70.25;39.05;;;;;;;10.24;95.21;103048.00;5042422;28;20422;-65
2021/12/15 12:00:27;;;;;;;72.00;38.63;;;;;;;10.22;95.13;103043.69;5036629;28;20083;-65
2021/12/15 12:02:55;;;;;;;75.47;40.30;;;;;;;10.22;95.51;103050.03;5033972;28;20046;-64
2021/12/15 12:05:24;;;;;;;65.18;36.22;;;;;;;10.25;95.40;103044.22;5036300;28;20445;-64
2021/12/15 12:07:53;;;;;;;;;;;;;;;10.34;95.44;103048.69;5045126;28;20033;-65
2021/12/15 12:10:23;;;;;;;67.45;36.72;;;;;;;10.27;94.76;103049.53;5033082;28;20299;-65
2021/12/15 12:13:03;;;;;;;68.43;38.00;;;;;;;10.25;95.02;103043.38;5036099;28;20041;-65
2021/12/15 12:15:30;;;;;;;65.85;36.28;;;;;;;10.27;94.40;103042.16;5036039;28;20028;-65
2021/12/15 12:18:04;;;;;;;68.80;39.60;;;;;;;10.29;94.36;103044.72;5036104;28;20041;-65
2021/12/15 12:20:39;;;;;;;63.13;37.33;;;;;;;10.30;94.37;103033.56;5036621;28;20056;-65
2021/12/15 12:23:08;;;;;;;65.95;36.35;;;;;;;10.35;94.14;103030.31;5043291;28;20548;-65
2021/12/15 12:25:44;;;;;;;;;;;;;;;10.48;94.40;103033.34;5044695;28;20021;-64
2021/12/15 12:28:19;;;;;;;65.95;35.05;;;;;;;10.41;93.18;103037.84;5042390;28;19974;-65